sensor_id;sensor_type;location;lat;lon;timestamp;pressure;altitude;pressure_sealevel;temperature;humidity
12172;BME280;6149;52.418;13.668;2023-04-25T00:02:04;100110.63;;;7.81;100.00
12172;BME280;6149;52.418;13.668;2023-04-25T00:04:36;100114.97;;;7.82;100.00
12172;BME280;6149;52.418;13.668;2023-04-25T00:07:04;100114.31;;;7.79;100.00
12172;BME280;6149;52.418;13.668;2023-04-25T00:09:35;100112.88;;;7.89;100.00
12172;BME280;6149;52.418;13.668;2023-04-25T00:12:03;100109.19;;;7.76;100.00
12172;BME280;6149;52.418;13.668;2023-04-25T00:14:31;100107.06;;;7.82;100.00
12172;BME280;6149;52.418;13.668;2023-04-25T00:17:00;100107.47;;;7.75;100.00
12172;BME280;6149;52.418;13.668;2023-04-25T00:19:28;100101.88;;;7.81;100.00
12172;BME280;6149;52.418;13.668;2023-04-25T00:21:58;100099.81;;;7.70;100.00
12172;BME280;6149;52.418;13.668;2023-04-25T00:24:26;100094.94;;;7.80;100.00
12172;BME280;6149;52.418;13.668;2023-04-25T00:26:53;100100.81;;;7.67;100.00
12172;BME280;6149;52.418;13.668;2023-04-25T00:29:21;100085.88;;;7.68;100.00
12172;BME280;6149;52.418;13.668;2023-04-25T00:31:51;100098.19;;;7.67;100.00
12172;BME280;6149;52.418;13.668;2023-04-25T00:34:18;100100.09;;;7.64;100.00
12172;BME280;6149;52.418;13.668;2023-04-25T00:36:50;100103.22;;;7.72;100.00
12172;BME280;6149;52.418;13.668;2023-04-25T00:39:23;100105.16;;;7.68;99.48
12172;BME280;6149;52.418;13.668;2023-04-25T00:41:52;100109.78;;;7.63;99.68
12172;BME280;6149;52.418;13.668;2023-04-25T00:44:22;100105.16;;;7.68;99.43
12172;BME280;6149;52.418;13.668;2023-04-25T00:46:50;100106.53;;;7.58;99.39
12172;BME280;6149;52.418;13.668;2023-04-25T00:49:20;100105.03;;;7.53;99.62
12172;BME280;6149;52.418;13.668;2023-04-25T00:51:51;100105.75;;;7.56;98.78
12172;BME280;6149;52.418;13.668;2023-04-25T00:54:25;100113.41;;;7.61;98.72
12172;BME280;6149;52.418;13.668;2023-04-25T00:56:53;100112.56;;;7.60;97.31
12172;BME280;6149;52.418;13.668;2023-04-25T00:59:23;100107.06;;;7.65;97.84
12172;BME280;6149;52.418;13.668;2023-04-25T01:01:51;100111.78;;;7.58;97.77
12172;BME280;6149;52.418;13.668;2023-04-25T01:04:19;100103.97;;;7.57;97.71
12172;BME280;6149;52.418;13.668;2023-04-25T01:06:49;100104.59;;;7.62;97.80
12172;BME280;6149;52.418;13.668;2023-04-25T01:09:22;100100.19;;;7.62;97.38
12172;BME280;6149;52.418;13.668;2023-04-25T01:11:51;100095.78;;;7.63;98.16
12172;BME280;6149;52.418;13.668;2023-04-25T01:14:19;100097.03;;;7.73;96.95
12172;BME280;6149;52.418;13.668;2023-04-25T01:16:49;100099.19;;;7.65;98.11
12172;BME280;6149;52.418;13.668;2023-04-25T01:19:19;100098.19;;;7.67;98.38
12172;BME280;6149;52.418;13.668;2023-04-25T01:21:56;100097.72;;;7.77;97.82
12172;BME280;6149;52.418;13.668;2023-04-25T01:24:24;100102.00;;;7.79;98.24
12172;BME280;6149;52.418;13.668;2023-04-25T01:26:53;100102.00;;;7.79;97.75
12172;BME280;6149;52.418;13.668;2023-04-25T01:29:23;100104.53;;;7.81;97.68
12172;BME280;6149;52.418;13.668;2023-04-25T01:31:53;100099.09;;;7.84;98.14
12172;BME280;6149;52.418;13.668;2023-04-25T01:34:20;100106.00;;;7.86;97.53
12172;BME280;6149;52.418;13.668;2023-04-25T01:36:50;100103.00;;;7.94;97.34
12172;BME280;6149;52.418;13.668;2023-04-25T01:39:24;100101.13;;;7.96;97.60
12172;BME280;6149;52.418;13.668;2023-04-25T01:41:52;100095.25;;;7.91;97.99
12172;BME280;6149;52.418;13.668;2023-04-25T01:44:19;100104.47;;;7.99;97.08
12172;BME280;6149;52.418;13.668;2023-04-25T01:46:49;100112.28;;;8.01;97.04
12172;BME280;6149;52.418;13.668;2023-04-25T01:49:20;100102.75;;;7.98;97.54
12172;BME280;6149;52.418;13.668;2023-04-25T01:51:49;100106.72;;;8.07;96.82
12172;BME280;6149;52.418;13.668;2023-04-25T01:54:19;100103.69;;;8.15;96.42
12172;BME280;6149;52.418;13.668;2023-04-25T01:56:52;100106.56;;;8.10;96.27
12172;BME280;6149;52.418;13.668;2023-04-25T01:59:20;100103.63;;;8.16;96.75
12172;BME280;6149;52.418;13.668;2023-04-25T02:01:49;100098.81;;;8.07;97.77
12172;BME280;6149;52.418;13.668;2023-04-25T02:04:19;100116.31;;;8.08;97.14
12172;BME280;6149;52.418;13.668;2023-04-25T02:06:55;100109.97;;;8.12;96.64
12172;BME280;6149;52.418;13.668;2023-04-25T02:09:24;100111.91;;;8.09;97.08
12172;BME280;6149;52.418;13.668;2023-04-25T02:11:57;100107.50;;;8.09;96.64
12172;BME280;6149;52.418;13.668;2023-04-25T02:14:26;100108.22;;;8.28;95.93
12172;BME280;6149;52.418;13.668;2023-04-25T02:16:52;100111.03;;;8.25;94.47
12172;BME280;6149;52.418;13.668;2023-04-25T02:19:19;100115.59;;;8.22;95.11
12172;BME280;6149;52.418;13.668;2023-04-25T02:21:50;100111.25;;;8.21;95.09
12172;BME280;6149;52.418;13.668;2023-04-25T02:24:21;100112.81;;;8.25;95.59
12172;BME280;6149;52.418;13.668;2023-04-25T02:26:49;100111.19;;;8.22;95.23
12172;BME280;6149;52.418;13.668;2023-04-25T02:29:24;100108.47;;;8.24;95.13
12172;BME280;6149;52.418;13.668;2023-04-25T02:31:52;100109.00;;;8.30;94.55
12172;BME280;6149;52.418;13.668;2023-04-25T02:34:22;100112.88;;;8.23;95.08
12172;BME280;6149;52.418;13.668;2023-04-25T02:36:51;100108.06;;;8.31;95.07
12172;BME280;6149;52.418;13.668;2023-04-25T02:39:20;100104.13;;;8.23;95.94
12172;BME280;6149;52.418;13.668;2023-04-25T02:41:51;100109.63;;;8.18;96.47
12172;BME280;6149;52.418;13.668;2023-04-25T02:44:21;100104.34;;;8.18;96.53
12172;BME280;6149;52.418;13.668;2023-04-25T02:46:51;100103.19;;;8.24;96.14
12172;BME280;6149;52.418;13.668;2023-04-25T02:49:21;100108.88;;;8.16;96.54
12172;BME280;6149;52.418;13.668;2023-04-25T02:51:49;100108.78;;;8.18;96.14
12172;BME280;6149;52.418;13.668;2023-04-25T02:54:18;100103.63;;;8.16;96.00
12172;BME280;6149;52.418;13.668;2023-04-25T02:56:48;100108.13;;;8.14;96.28
12172;BME280;6149;52.418;13.668;2023-04-25T02:59:16;100112.53;;;8.14;95.67
12172;BME280;6149;52.418;13.668;2023-04-25T03:01:45;100107.63;;;8.23;95.16
12172;BME280;6149;52.418;13.668;2023-04-25T03:04:13;100098.25;;;8.18;95.58
12172;BME280;6149;52.418;13.668;2023-04-25T03:06:40;100100.03;;;8.17;95.11
12172;BME280;6149;52.418;13.668;2023-04-25T03:09:08;100104.69;;;8.12;96.13
12172;BME280;6149;52.418;13.668;2023-04-25T03:11:38;100101.28;;;8.10;96.13
12172;BME280;6149;52.418;13.668;2023-04-25T03:14:06;100096.97;;;8.09;96.35
12172;BME280;6149;52.418;13.668;2023-04-25T03:16:34;100095.19;;;8.10;96.27
12172;BME280;6149;52.418;13.668;2023-04-25T03:19:03;100096.25;;;8.05;97.12
12172;BME280;6149;52.418;13.668;2023-04-25T03:21:32;100096.19;;;8.07;97.01
12172;BME280;6149;52.418;13.668;2023-04-25T03:24:02;100100.28;;;8.13;95.45
12172;BME280;6149;52.418;13.668;2023-04-25T03:26:31;100096.09;;;8.09;95.78
12172;BME280;6149;52.418;13.668;2023-04-25T03:28:59;100096.19;;;8.07;96.24
12172;BME280;6149;52.418;13.668;2023-04-25T03:31:26;100099.81;;;8.04;96.58
12172;BME280;6149;52.418;13.668;2023-04-25T03:33:54;100101.44;;;8.07;96.01
12172;BME280;6149;52.418;13.668;2023-04-25T03:36:26;100096.34;;;8.04;96.14
12172;BME280;6149;52.418;13.668;2023-04-25T03:38:54;100106.00;;;8.03;95.66
12172;BME280;6149;52.418;13.668;2023-04-25T03:41:22;100104.09;;;8.07;95.99
12172;BME280;6149;52.418;13.668;2023-04-25T03:43:50;100105.88;;;8.07;96.57
12172;BME280;6149;52.418;13.668;2023-04-25T03:46:20;100100.28;;;8.13;96.00
12172;BME280;6149;52.418;13.668;2023-04-25T03:48:50;100106.72;;;8.07;96.38
12172;BME280;6149;52.418;13.668;2023-04-25T03:51:19;100112.91;;;8.06;96.56
12172;BME280;6149;52.418;13.668;2023-04-25T03:53:51;100113.06;;;8.03;96.56
12172;BME280;6149;52.418;13.668;2023-04-25T03:56:20;100121.81;;;8.03;96.84
12172;BME280;6149;52.418;13.668;2023-04-25T03:58:50;100119.19;;;8.03;97.01
12172;BME280;6149;52.418;13.668;2023-04-25T04:01:18;100113.84;;;8.05;96.51
12172;BME280;6149;52.418;13.668;2023-04-25T04:03:45;100118.19;;;8.06;96.10
12172;BME280;6149;52.418;13.668;2023-04-25T04:06:13;100118.31;;;8.03;96.43
12172;BME280;6149;52.418;13.668;2023-04-25T04:08:41;100119.81;;;8.09;95.53
12172;BME280;6149;52.418;13.668;2023-04-25T04:11:10;100124.38;;;8.05;96.73
12172;BME280;6149;52.418;13.668;2023-04-25T04:13:38;100116.69;;;8.18;95.09
12172;BME280;6149;52.418;13.668;2023-04-25T04:16:06;100118.78;;;8.11;95.77
12172;BME280;6149;52.418;13.668;2023-04-25T04:18:33;100133.75;;;8.11;95.41
12172;BME280;6149;52.418;13.668;2023-04-25T04:21:02;100131.25;;;8.08;95.47
12172;BME280;6149;52.418;13.668;2023-04-25T04:23:30;100127.00;;;8.05;96.09
12172;BME280;6149;52.418;13.668;2023-04-25T04:25:58;100123.22;;;8.11;95.41
12172;BME280;6149;52.418;13.668;2023-04-25T04:28:27;100125.00;;;8.10;96.72
12172;BME280;6149;52.418;13.668;2023-04-25T04:30:55;100134.25;;;8.17;96.17
12172;BME280;6149;52.418;13.668;2023-04-25T04:33:25;100134.59;;;8.11;96.26
12172;BME280;6149;52.418;13.668;2023-04-25T04:35:53;100137.75;;;8.18;96.42
12172;BME280;6149;52.418;13.668;2023-04-25T04:38:22;100134.44;;;8.14;95.98
12172;BME280;6149;52.418;13.668;2023-04-25T04:40:50;100139.78;;;8.13;97.52
12172;BME280;6149;52.418;13.668;2023-04-25T04:43:31;100136.78;;;8.37;95.33
12172;BME280;6149;52.418;13.668;2023-04-25T04:46:00;100136.19;;;8.31;95.37
12172;BME280;6149;52.418;13.668;2023-04-25T04:48:31;100131.94;;;8.28;95.11
12172;BME280;6149;52.418;13.668;2023-04-25T04:51:00;100135.66;;;8.24;95.38
12172;BME280;6149;52.418;13.668;2023-04-25T04:53:28;100139.69;;;8.31;95.21
12172;BME280;6149;52.418;13.668;2023-04-25T04:55:56;100142.91;;;8.38;95.64
12172;BME280;6149;52.418;13.668;2023-04-25T04:58:24;100134.50;;;8.30;95.56
12172;BME280;6149;52.418;13.668;2023-04-25T05:00:53;100144.75;;;8.36;95.09
12172;BME280;6149;52.418;13.668;2023-04-25T05:03:29;100144.09;;;8.31;95.09
12172;BME280;6149;52.418;13.668;2023-04-25T05:05:57;100145.81;;;8.32;95.16
12172;BME280;6149;52.418;13.668;2023-04-25T05:08:24;100147.00;;;8.44;94.35
12172;BME280;6149;52.418;13.668;2023-04-25T05:10:52;100135.00;;;8.38;95.46
12172;BME280;6149;52.418;13.668;2023-04-25T05:13:23;100151.66;;;8.38;95.63
12172;BME280;6149;52.418;13.668;2023-04-25T05:15:53;100149.72;;;8.42;94.53
12172;BME280;6149;52.418;13.668;2023-04-25T05:18:24;100150.81;;;8.38;94.90
12172;BME280;6149;52.418;13.668;2023-04-25T05:20:52;100143.44;;;8.45;95.54
12172;BME280;6149;52.418;13.668;2023-04-25T05:23:23;100147.84;;;8.44;95.18
12172;BME280;6149;52.418;13.668;2023-04-25T05:25:54;100158.25;;;8.47;95.41
12172;BME280;6149;52.418;13.668;2023-04-25T05:28:22;100152.03;;;8.48;94.01
12172;BME280;6149;52.418;13.668;2023-04-25T05:30:51;100160.44;;;8.55;95.03
12172;BME280;6149;52.418;13.668;2023-04-25T05:33:27;100156.59;;;8.45;95.34
12172;BME280;6149;52.418;13.668;2023-04-25T05:35:54;100156.38;;;8.49;95.71
12172;BME280;6149;52.418;13.668;2023-04-25T05:38:24;100156.44;;;8.48;95.23
12172;BME280;6149;52.418;13.668;2023-04-25T05:40:54;100159.44;;;8.57;94.57
12172;BME280;6149;52.418;13.668;2023-04-25T05:43:23;100151.81;;;8.53;95.11
12172;BME280;6149;52.418;13.668;2023-04-25T05:45:51;100162.00;;;8.59;94.68
12172;BME280;6149;52.418;13.668;2023-04-25T05:48:24;100158.81;;;8.69;94.54
12172;BME280;6149;52.418;13.668;2023-04-25T05:50:51;100167.81;;;8.65;94.47
12172;BME280;6149;52.418;13.668;2023-04-25T05:53:21;100165.63;;;8.74;94.35
12172;BME280;6149;52.418;13.668;2023-04-25T05:55:51;100172.53;;;8.76;93.69
12172;BME280;6149;52.418;13.668;2023-04-25T05:58:22;100173.53;;;8.74;94.30
12172;BME280;6149;52.418;13.668;2023-04-25T06:00:52;100180.34;;;8.78;93.32
12172;BME280;6149;52.418;13.668;2023-04-25T06:03:22;100175.00;;;8.79;93.08
12172;BME280;6149;52.418;13.668;2023-04-25T06:05:50;100179.88;;;8.87;94.08
12172;BME280;6149;52.418;13.668;2023-04-25T06:08:19;100179.59;;;8.91;94.85
12172;BME280;6149;52.418;13.668;2023-04-25T06:10:55;100178.97;;;9.03;93.93
12172;BME280;6149;52.418;13.668;2023-04-25T06:13:22;100180.59;;;9.06;93.28
12172;BME280;6149;52.418;13.668;2023-04-25T06:15:50;100180.34;;;9.11;93.89
12172;BME280;6149;52.418;13.668;2023-04-25T06:18:32;100188.84;;;9.16;92.67
12172;BME280;6149;52.418;13.668;2023-04-25T06:21:00;100183.25;;;9.37;92.15
12172;BME280;6149;52.418;13.668;2023-04-25T06:23:28;100187.69;;;9.37;91.42
12172;BME280;6149;52.418;13.668;2023-04-25T06:25:56;100189.38;;;9.38;91.40
12172;BME280;6149;52.418;13.668;2023-04-25T06:28:23;100188.69;;;9.34;91.03
12172;BME280;6149;52.418;13.668;2023-04-25T06:30:51;100186.50;;;9.43;90.89
12172;BME280;6149;52.418;13.668;2023-04-25T06:33:20;100189.22;;;9.41;90.47
12172;BME280;6149;52.418;13.668;2023-04-25T06:35:52;100189.88;;;9.29;91.15
12172;BME280;6149;52.418;13.668;2023-04-25T06:38:21;100192.88;;;9.23;92.03
12172;BME280;6149;52.418;13.668;2023-04-25T06:40:49;100190.06;;;9.26;92.10
12172;BME280;6149;52.418;13.668;2023-04-25T06:43:18;100190.41;;;9.20;91.96
12172;BME280;6149;52.418;13.668;2023-04-25T06:45:46;100183.94;;;9.41;90.93
12172;BME280;6149;52.418;13.668;2023-04-25T06:48:13;100183.94;;;9.25;90.85
12172;BME280;6149;52.418;13.668;2023-04-25T06:50:46;100188.19;;;9.28;91.37
12172;BME280;6149;52.418;13.668;2023-04-25T06:53:14;100185.44;;;9.14;92.13
12172;BME280;6149;52.418;13.668;2023-04-25T06:55:42;100194.28;;;9.13;92.70
12172;BME280;6149;52.418;13.668;2023-04-25T06:58:10;100186.81;;;9.21;93.53
12172;BME280;6149;52.418;13.668;2023-04-25T07:00:40;100190.56;;;9.17;93.10
12172;BME280;6149;52.418;13.668;2023-04-25T07:03:08;100193.03;;;9.20;92.74
12172;BME280;6149;52.418;13.668;2023-04-25T07:05:36;100192.19;;;9.19;93.35
12172;BME280;6149;52.418;13.668;2023-04-25T07:08:05;100189.88;;;9.29;92.88
12172;BME280;6149;52.418;13.668;2023-04-25T07:10:35;100185.97;;;9.36;91.38
12172;BME280;6149;52.418;13.668;2023-04-25T07:13:02;100198.16;;;9.38;91.47
12172;BME280;6149;52.418;13.668;2023-04-25T07:15:30;100199.59;;;9.44;92.14
12172;BME280;6149;52.418;13.668;2023-04-25T07:17:58;100193.75;;;9.55;90.73
12172;BME280;6149;52.418;13.668;2023-04-25T07:20:26;100201.91;;;9.50;91.59
12172;BME280;6149;52.418;13.668;2023-04-25T07:22:54;100194.75;;;9.52;91.73
12172;BME280;6149;52.418;13.668;2023-04-25T07:25:26;100199.88;;;9.55;89.97
12172;BME280;6149;52.418;13.668;2023-04-25T07:27:54;100209.66;;;9.53;91.34
12172;BME280;6149;52.418;13.668;2023-04-25T07:30:24;100204.53;;;9.50;91.49
12172;BME280;6149;52.418;13.668;2023-04-25T07:32:51;100210.44;;;9.55;92.17
12172;BME280;6149;52.418;13.668;2023-04-25T07:35:24;100216.47;;;9.57;92.68
12172;BME280;6149;52.418;13.668;2023-04-25T07:37:52;100215.38;;;9.61;91.92
12172;BME280;6149;52.418;13.668;2023-04-25T07:40:21;100220.06;;;9.56;91.22
12172;BME280;6149;52.418;13.668;2023-04-25T07:42:56;100218.06;;;9.44;92.46
12172;BME280;6149;52.418;13.668;2023-04-25T07:45:24;100225.63;;;9.34;92.76
12172;BME280;6149;52.418;13.668;2023-04-25T07:47:53;100226.75;;;9.46;93.48
12172;BME280;6149;52.418;13.668;2023-04-25T07:50:21;100235.34;;;9.34;93.71
12172;BME280;6149;52.418;13.668;2023-04-25T07:52:52;100234.31;;;9.36;94.14
12172;BME280;6149;52.418;13.668;2023-04-25T07:55:21;100236.88;;;9.38;93.37
12172;BME280;6149;52.418;13.668;2023-04-25T07:57:49;100234.34;;;9.52;93.83
12172;BME280;6149;52.418;13.668;2023-04-25T08:00:19;100234.50;;;9.49;94.54
12172;BME280;6149;52.418;13.668;2023-04-25T08:02:47;100244.31;;;9.47;94.84
12172;BME280;6149;52.418;13.668;2023-04-25T08:05:17;100258.44;;;9.46;94.98
12172;BME280;6149;52.418;13.668;2023-04-25T08:07:45;100260.88;;;9.33;95.05
12172;BME280;6149;52.418;13.668;2023-04-25T08:10:13;100262.41;;;9.22;96.41
12172;BME280;6149;52.418;13.668;2023-04-25T08:12:41;100261.09;;;9.13;97.03
12172;BME280;6149;52.418;13.668;2023-04-25T08:15:09;100261.16;;;9.12;98.50
12172;BME280;6149;52.418;13.668;2023-04-25T08:17:38;100263.03;;;9.10;98.28
12172;BME280;6149;52.418;13.668;2023-04-25T08:20:07;100275.91;;;9.16;96.96
12172;BME280;6149;52.418;13.668;2023-04-25T08:22:36;100269.38;;;9.23;96.96
12172;BME280;6149;52.418;13.668;2023-04-25T08:25:05;100271.50;;;9.32;94.02
12172;BME280;6149;52.418;13.668;2023-04-25T08:27:40;100275.84;;;9.33;92.44
12172;BME280;6149;52.418;13.668;2023-04-25T08:30:08;100281.81;;;9.36;93.53
12172;BME280;6149;52.418;13.668;2023-04-25T08:32:40;100284.06;;;9.44;92.99
12172;BME280;6149;52.418;13.668;2023-04-25T08:35:11;100289.16;;;9.47;93.38
12172;BME280;6149;52.418;13.668;2023-04-25T08:37:38;100291.19;;;9.42;93.77
12172;BME280;6149;52.418;13.668;2023-04-25T08:40:11;100289.94;;;9.49;93.98
12172;BME280;6149;52.418;13.668;2023-04-25T08:42:41;100294.59;;;9.44;95.85
12172;BME280;6149;52.418;13.668;2023-04-25T08:45:10;100291.28;;;9.41;94.85
12172;BME280;6149;52.418;13.668;2023-04-25T08:47:38;100296.47;;;9.42;95.54
12172;BME280;6149;52.418;13.668;2023-04-25T08:50:09;100293.25;;;9.53;94.73
12172;BME280;6149;52.418;13.668;2023-04-25T08:52:43;100299.03;;;9.44;90.94
12172;BME280;6149;52.418;13.668;2023-04-25T08:55:12;100299.88;;;9.44;93.39
12172;BME280;6149;52.418;13.668;2023-04-25T08:57:41;100302.97;;;9.52;94.07
12172;BME280;6149;52.418;13.668;2023-04-25T09:00:11;100317.47;;;9.77;92.92
12172;BME280;6149;52.418;13.668;2023-04-25T09:02:42;100308.72;;;9.92;88.80
12172;BME280;6149;52.418;13.668;2023-04-25T09:05:12;100314.69;;;10.11;86.80
12172;BME280;6149;52.418;13.668;2023-04-25T09:07:40;100312.25;;;10.24;82.31
12172;BME280;6149;52.418;13.668;2023-04-25T09:10:11;100308.56;;;10.26;80.65
12172;BME280;6149;52.418;13.668;2023-04-25T09:12:39;100325.84;;;10.16;79.83
12172;BME280;6149;52.418;13.668;2023-04-25T09:15:09;100326.56;;;10.20;75.88
12172;BME280;6149;52.418;13.668;2023-04-25T09:17:41;100327.41;;;10.20;75.44
12172;BME280;6149;52.418;13.668;2023-04-25T09:20:13;100343.09;;;10.23;72.20
12172;BME280;6149;52.418;13.668;2023-04-25T09:22:45;100343.09;;;10.23;68.26
12172;BME280;6149;52.418;13.668;2023-04-25T09:25:13;100343.44;;;10.33;69.51
12172;BME280;6149;52.418;13.668;2023-04-25T09:27:52;100341.69;;;10.48;63.94
12172;BME280;6149;52.418;13.668;2023-04-25T09:30:29;100346.56;;;10.55;61.19
12172;BME280;6149;52.418;13.668;2023-04-25T09:33:03;100351.75;;;10.57;59.44
12172;BME280;6149;52.418;13.668;2023-04-25T09:35:41;100346.66;;;10.54;60.00
12172;BME280;6149;52.418;13.668;2023-04-25T09:38:10;100355.50;;;10.68;60.31
12172;BME280;6149;52.418;13.668;2023-04-25T09:40:43;100357.97;;;11.01;61.15
12172;BME280;6149;52.418;13.668;2023-04-25T09:43:18;100353.25;;;11.07;58.94
12172;BME280;6149;52.418;13.668;2023-04-25T09:45:50;100364.97;;;11.02;56.03
12172;BME280;6149;52.418;13.668;2023-04-25T09:48:20;100352.50;;;11.04;56.66
12172;BME280;6149;52.418;13.668;2023-04-25T09:51:07;100351.44;;;11.65;54.12
12172;BME280;6149;52.418;13.668;2023-04-25T09:53:38;100363.66;;;11.96;54.35
12172;BME280;6149;52.418;13.668;2023-04-25T09:56:08;100361.38;;;11.90;53.68
12172;BME280;6149;52.418;13.668;2023-04-25T09:58:38;100358.72;;;11.76;51.96
12172;BME280;6149;52.418;13.668;2023-04-25T10:01:08;100360.22;;;11.52;53.08
12172;BME280;6149;52.418;13.668;2023-04-25T10:03:39;100368.38;;;11.49;53.78
12172;BME280;6149;52.418;13.668;2023-04-25T10:06:12;100372.53;;;11.95;53.63
12172;BME280;6149;52.418;13.668;2023-04-25T10:08:43;100366.19;;;11.98;53.39
12172;BME280;6149;52.418;13.668;2023-04-25T10:11:14;100363.53;;;12.12;53.82
12172;BME280;6149;52.418;13.668;2023-04-25T10:13:43;100364.22;;;12.01;51.41
12172;BME280;6149;52.418;13.668;2023-04-25T10:16:12;100366.28;;;12.11;53.42
12172;BME280;6149;52.418;13.668;2023-04-25T10:18:41;100364.03;;;12.04;54.06
12172;BME280;6149;52.418;13.668;2023-04-25T10:21:11;100375.56;;;12.18;52.65
12172;BME280;6149;52.418;13.668;2023-04-25T10:23:40;100370.06;;;12.07;54.10
12172;BME280;6149;52.418;13.668;2023-04-25T10:26:08;100378.63;;;11.83;53.46
12172;BME280;6149;52.418;13.668;2023-04-25T10:28:58;100385.16;;;11.78;52.76
12172;BME280;6149;52.418;13.668;2023-04-25T10:31:27;100385.41;;;11.73;53.86
12172;BME280;6149;52.418;13.668;2023-04-25T10:33:57;100377.63;;;11.70;53.78
12172;BME280;6149;52.418;13.668;2023-04-25T10:36:31;100386.13;;;11.61;52.31
12172;BME280;6149;52.418;13.668;2023-04-25T10:39:03;100372.91;;;11.61;54.68
12172;BME280;6149;52.418;13.668;2023-04-25T10:41:46;100371.19;;;11.60;52.69
12172;BME280;6149;52.418;13.668;2023-04-25T10:44:15;100376.97;;;11.66;52.38
12172;BME280;6149;52.418;13.668;2023-04-25T10:46:44;100379.00;;;11.77;52.06
12172;BME280;6149;52.418;13.668;2023-04-25T10:49:30;100374.91;;;11.71;52.35
12172;BME280;6149;52.418;13.668;2023-04-25T10:52:28;100398.44;;;11.62;51.99
12172;BME280;6149;52.418;13.668;2023-04-25T10:54:58;100391.53;;;11.59;52.54
12172;BME280;6149;52.418;13.668;2023-04-25T10:57:31;100393.31;;;11.59;52.26
12172;BME280;6149;52.418;13.668;2023-04-25T11:00:11;100392.88;;;11.66;51.16
12172;BME280;6149;52.418;13.668;2023-04-25T11:02:44;100401.66;;;11.67;51.78
12172;BME280;6149;52.418;13.668;2023-04-25T11:05:20;100387.38;;;11.69;52.44
12172;BME280;6149;52.418;13.668;2023-04-25T11:07:58;100384.28;;;11.91;51.07
12172;BME280;6149;52.418;13.668;2023-04-25T11:10:28;100396.78;;;11.89;49.67
12172;BME280;6149;52.418;13.668;2023-04-25T11:12:58;100404.72;;;12.03;49.91
12172;BME280;6149;52.418;13.668;2023-04-25T11:15:26;100399.72;;;11.85;49.22
12172;BME280;6149;52.418;13.668;2023-04-25T11:17:55;100407.44;;;11.73;51.25
12172;BME280;6149;52.418;13.668;2023-04-25T11:20:25;100412.91;;;11.56;50.47
12172;BME280;6149;52.418;13.668;2023-04-25T11:22:58;100408.31;;;11.30;50.08
12172;BME280;6149;52.418;13.668;2023-04-25T11:25:27;100416.78;;;11.21;50.80
12172;BME280;6149;52.418;13.668;2023-04-25T11:27:58;100413.03;;;11.25;51.34
12172;BME280;6149;52.418;13.668;2023-04-25T11:30:27;100413.06;;;11.53;52.64
12172;BME280;6149;52.418;13.668;2023-04-25T11:32:56;100412.44;;;11.50;52.22
12172;BME280;6149;52.418;13.668;2023-04-25T11:35:24;100418.38;;;11.53;51.16
12172;BME280;6149;52.418;13.668;2023-04-25T11:37:53;100419.13;;;11.55;50.44
12172;BME280;6149;52.418;13.668;2023-04-25T11:40:24;100412.84;;;11.72;51.97
12172;BME280;6149;52.418;13.668;2023-04-25T11:42:53;100417.69;;;11.80;51.07
12172;BME280;6149;52.418;13.668;2023-04-25T11:45:28;100419.13;;;11.85;49.33
12172;BME280;6149;52.418;13.668;2023-04-25T11:47:57;100427.28;;;11.66;49.94
12172;BME280;6149;52.418;13.668;2023-04-25T11:50:28;100430.41;;;11.59;48.91
12172;BME280;6149;52.418;13.668;2023-04-25T11:52:56;100430.22;;;11.62;49.91
12172;BME280;6149;52.418;13.668;2023-04-25T11:55:30;100432.69;;;11.51;50.16
12172;BME280;6149;52.418;13.668;2023-04-25T11:57:59;100443.16;;;11.52;51.25
12172;BME280;6149;52.418;13.668;2023-04-25T12:00:28;100450.22;;;11.37;50.61
12172;BME280;6149;52.418;13.668;2023-04-25T12:02:57;100442.06;;;11.26;51.22
12172;BME280;6149;52.418;13.668;2023-04-25T12:05:26;100463.50;;;11.22;51.22
12172;BME280;6149;52.418;13.668;2023-04-25T12:07:55;100457.16;;;11.24;50.14
12172;BME280;6149;52.418;13.668;2023-04-25T12:10:26;100466.31;;;11.19;50.72
12172;BME280;6149;52.418;13.668;2023-04-25T12:12:55;100472.69;;;11.00;47.95
12172;BME280;6149;52.418;13.668;2023-04-25T12:15:26;100475.06;;;10.89;48.08
12172;BME280;6149;52.418;13.668;2023-04-25T12:17:54;100475.06;;;10.89;48.30
12172;BME280;6149;52.418;13.668;2023-04-25T12:20:24;100475.06;;;10.89;48.22
12172;BME280;6149;52.418;13.668;2023-04-25T12:22:52;100469.19;;;11.00;48.36
12172;BME280;6149;52.418;13.668;2023-04-25T12:25:40;100471.50;;;11.20;47.92
12172;BME280;6149;52.418;13.668;2023-04-25T12:28:13;100467.00;;;11.22;45.72
12172;BME280;6149;52.418;13.668;2023-04-25T12:30:56;100467.50;;;11.29;46.91
12172;BME280;6149;52.418;13.668;2023-04-25T12:33:26;100466.44;;;11.47;47.43
12172;BME280;6149;52.418;13.668;2023-04-25T12:35:58;100464.81;;;11.45;46.67
12172;BME280;6149;52.418;13.668;2023-04-25T12:38:31;100466.97;;;11.52;46.04
12172;BME280;6149;52.418;13.668;2023-04-25T12:41:04;100470.19;;;11.43;47.22
12172;BME280;6149;52.418;13.668;2023-04-25T12:43:32;100476.03;;;11.34;46.72
12172;BME280;6149;52.418;13.668;2023-04-25T12:46:00;100477.22;;;11.28;48.19
12172;BME280;6149;52.418;13.668;2023-04-25T12:48:28;100468.44;;;11.28;46.77
12172;BME280;6149;52.418;13.668;2023-04-25T12:50:56;100464.91;;;11.43;48.40
12172;BME280;6149;52.418;13.668;2023-04-25T12:53:25;100472.47;;;11.19;48.49
12172;BME280;6149;52.418;13.668;2023-04-25T12:55:53;100487.41;;;11.20;46.90
12172;BME280;6149;52.418;13.668;2023-04-25T12:58:34;100481.06;;;11.23;46.21
12172;BME280;6149;52.418;13.668;2023-04-25T13:01:02;100481.06;;;11.23;46.05
12172;BME280;6149;52.418;13.668;2023-04-25T13:03:29;100468.09;;;11.34;46.00
12172;BME280;6149;52.418;13.668;2023-04-25T13:05:58;100466.53;;;11.46;45.82
12172;BME280;6149;52.418;13.668;2023-04-25T13:08:26;100477.47;;;11.39;45.66
12172;BME280;6149;52.418;13.668;2023-04-25T13:10:56;100468.69;;;11.53;44.50
12172;BME280;6149;52.418;13.668;2023-04-25T13:13:29;100480.97;;;11.54;44.99